• Join FlightAware (Why Join?)
  • Login
  • US Flag 
02:16PM EST


 

Airport Tracker/Info


-or-


 

Live Flight TrackerFlight Track Log ✈ N75AW ✈ 06-Jun-2013 ✈ KAPF - KMEM

Flight Track Log - Related Links

Times and Time Zones

All times are in EDT time to prevent confusion due to time zone crossing. See the N75AW flight status page for this flight to view local times or setup timezone preferences in your user account.

Time Position Orientation Groundspeed Altitude Reporting Facility
EDT Latitude Longitude Course Direction KTS MPH feet Rate Location/Type
12:53PM 26.4106 -81.7319 324° Northwest 215 247 11,200  Level Miami Center
12:54PM 26.4575 -81.7664 327° Northwest 205 236 12,600 1,560 Climbing Miami Center
12:55PM 26.5083 -81.8033 327° Northwest 199 229 14,400 1,620 Climbing Miami Center
12:56PM 26.5531 -81.8378 325° Northwest 205 236 15,900 1,620 Climbing Miami Center
12:57PM 26.5997 -81.8744 325° Northwest 205 236 17,700 1,560 Climbing Miami Center
12:58PM 26.8003 -82.3122 324° Northwest  Level Estimated
12:58PM 26.6531 -81.9069 331° Northwest 205 236 19,100  Level Miami Center
12:59PM 26.7019 -81.9369 331° Northwest 205 236 20,300 1,200 Climbing Miami Center
01:00PM 26.7511 -81.9694 329° Northwest 200 230 21,500 900 Climbing Miami Center
01:01PM 26.8000 -81.9969 333° Northwest 200 230 22,100 300 Climbing Miami Center
01:02PM 26.8614 -82.0369 330° Northwest 224 258 22,100  Level Miami Center
01:03PM 26.9289 -82.0750 333° Northwest 251 289 22,100  Level Miami Center
01:04PM 27.0003 -82.1178 332° Northwest 273 314 22,100  Level Miami Center
01:05PM 27.0761 -82.1608 333° Northwest 289 333 22,100  Level Miami Center
01:06PM 27.1350 -82.1986 330° Northwest 284 327 22,100  Level Miami Center
01:07PM 27.2022 -82.2436 329° Northwest 284 327 22,100  Level Miami Center
01:08PM 27.2778 -82.2914 331° Northwest 277 319 22,100  Level Miami Center
01:09PM 27.3469 -82.3344 331° Northwest 277 319 22,100  Level Miami Center
01:10PM 27.4122 -82.3750 331° Northwest 270 311 22,100 -60 Level Miami Center
01:11PM 27.4714 -82.4153 329° Northwest 270 311 22,000 -60 Descending Miami Center
01:12PM 27.5383 -82.4583 330° Northwest 265 305 22,000  Level Miami Center
01:13PM 27.6097 -82.5017 332° Northwest 265 305 22,100  Climbing Miami Center
01:15PM 27.7656 -82.5972 332° Northwest 272 313 22,100  Level Jacksonville Center
01:16PM 27.8325 -82.6414 330° Northwest 272 313 22,100  Level Jacksonville Center
01:17PM 27.9036 -82.6836 332° Northwest 272 313 22,100  Level Jacksonville Center
01:18PM 27.9703 -82.7258 331° Northwest 277 319 22,100  Level Jacksonville Center
01:19PM 28.0414 -82.7703 331° Northwest 277 319 22,100  Level Jacksonville Center
01:20PM 28.1103 -82.8150 330° Northwest 277 319 22,100  Level Jacksonville Center
01:21PM 28.1792 -82.8572 332° Northwest 277 319 22,100  Level Jacksonville Center
01:22PM 28.2500 -82.8997 332° Northwest 282 325 22,100  Level Jacksonville Center
01:23PM 28.3189 -82.9444 330° Northwest 282 325 22,100  Level Jacksonville Center
01:24PM 28.3900 -82.9894 331° Northwest 287 330 22,100 -60 Level Jacksonville Center
01:25PM 28.4567 -83.0247 335° Northwest 282 325 22,000 -60 Descending Jacksonville Center
01:26PM 28.5256 -83.0697 330° Northwest 282 325 22,000  Level Jacksonville Center
01:27PM 28.5964 -83.1125 332° Northwest 287 330 22,100  Climbing Jacksonville Center
01:28PM 28.6650 -83.1575 330° Northwest 287 330 22,100  Level Jacksonville Center
01:29PM 28.7339 -83.2028 330° Northwest 287 330 22,100  Level Jacksonville Center
01:30PM 28.8047 -83.2481 331° Northwest 287 330 22,100  Level Jacksonville Center
01:31PM 28.8756 -83.2933 331° Northwest 287 330 22,100 240 Level Jacksonville Center
01:32PM 28.9464 -83.3386 331° Northwest 292 336 22,600 660 Climbing Jacksonville Center
01:33PM 29.0150 -83.3817 331° Northwest 275 316 23,500 720 Climbing Jacksonville Center
01:34PM 29.0756 -83.4225 329° Northwest 260 299 24,100 300 Climbing Jacksonville Center
01:35PM 29.1400 -83.4631 331° Northwest 260 299 24,100  Level Jacksonville Center
01:36PM 29.2086 -83.5064 331° Northwest 267 307 24,100  Level Jacksonville Center
01:37PM 29.2794 -83.5519 331° Northwest 274 315 24,100  Level Jacksonville Center
01:38PM 29.3481 -83.5931 332° Northwest 279 321 24,100  Level Jacksonville Center
01:39PM 29.4167 -83.6364 331° Northwest 279 321 24,100  Level Jacksonville Center
01:40PM 29.4875 -83.6822 331° Northwest 279 321 24,100  Level Jacksonville Center
01:41PM 29.5539 -83.7306 328° Northwest 279 321 24,100  Level Jacksonville Center
01:42PM 29.6225 -83.7814 327° Northwest 284 327 24,100  Level Jacksonville Center
01:43PM 29.6889 -83.8297 328° Northwest 284 327 24,100  Level Jacksonville Center
01:44PM 29.7553 -83.8783 328° Northwest 284 327 24,100  Level Jacksonville Center
01:45PM 29.8261 -83.9269 329° Northwest 289 333 24,100  Level Jacksonville Center
01:46PM 29.8964 -83.9803 327° Northwest 294 338 24,100  Level Jacksonville Center
01:47PM 29.9650 -84.0292 328° Northwest 294 338 24,100  Level Jacksonville Center
01:48PM 30.0314 -84.0850 324° Northwest 294 338 24,100  Level Jacksonville Center
01:49PM 30.0997 -84.1339 328° Northwest 294 338 24,100  Level Jacksonville Center
01:50PM 30.1558 -84.1731 329° Northwest 294 338 24,100  Level Jacksonville Center
01:51PM 30.2283 -84.2244 329° Northwest 294 338 24,100  Level Jacksonville Center
01:52PM 30.2967 -84.2783 326° Northwest 294 338 24,100  Level Jacksonville Center
01:53PM 30.3669 -84.3300 328° Northwest 294 338 24,100  Level Jacksonville Center
01:54PM 30.4375 -84.3814 328° Northwest 299 344 24,100  Level Jacksonville Center
01:55PM 30.5078 -84.4333 328° Northwest 299 344 24,100  Level Jacksonville Center
01:56PM 30.5739 -84.4825 327° Northwest 299 344 24,100  Level Jacksonville Center
01:57PM 30.6464 -84.5369 327° Northwest 299 344 24,100  Level Jacksonville Center
01:58PM 30.7125 -84.5864 327° Northwest 299 344 24,100  Level Jacksonville Center
01:59PM 30.7847 -84.6433 326° Northwest 299 344 24,100  Level Jacksonville Center
02:00PM 30.8508 -84.6931 327° Northwest 299 344 24,100  Level Jacksonville Center
02:01PM 30.9211 -84.7450 328° Northwest 299 344 24,100  Level Jacksonville Center
02:02PM 30.9894 -84.7950 328° Northwest 299 344 24,100  Level Jacksonville Center
02:03PM 31.0656 -84.8547 326° Northwest 299 344 24,100  Level Jacksonville Center
02:04PM 31.1233 -84.9019 325° Northwest 292 336 24,100  Level Jacksonville Center
02:05PM 31.1894 -84.9494 328° Northwest 292 336 24,100  Level Jacksonville Center
02:08PM 31.3458 -85.0672 327° Northwest 280 322 24,100  Level Atlanta Center
02:09PM 31.4058 -85.1167 325° Northwest 274 315 24,100  Level Atlanta Center
02:10PM 31.4722 -85.1661 328° Northwest 274 315 24,100  Level Atlanta Center
02:11PM 31.5364 -85.2133 328° Northwest 274 315 24,100  Level Atlanta Center
02:12PM 31.6008 -85.2653 326° Northwest 274 315 24,100  Level Atlanta Center
02:13PM 31.6669 -85.3150 327° Northwest 279 321 24,100  Level Atlanta Center
02:14PM 31.7311 -85.3622 328° Northwest 285 328 24,100  Level Atlanta Center
02:15PM 31.7975 -85.4144 326° Northwest 285 328 24,100  Level Atlanta Center
02:16PM 31.8636 -85.4644 327° Northwest 285 328 24,100  Level Atlanta Center
02:17PM 31.9278 -85.5119 328° Northwest 280 322 24,100  Level Atlanta Center
02:18PM 31.9919 -85.5619 327° Northwest 280 322 24,100  Level Atlanta Center
02:19PM 32.0539 -85.6122 325° Northwest 280 322 24,100  Level Atlanta Center
02:20PM 32.1158 -85.6622 326° Northwest 280 322 24,100  Level Atlanta Center
02:21PM 32.1800 -85.7100 328° Northwest 280 322 24,100  Level Atlanta Center
02:22PM 32.2461 -85.7603 327° Northwest 280 322 24,100  Level Atlanta Center
02:23PM 32.3078 -85.8131 324° Northwest 275 316 24,100  Level Atlanta Center
02:24PM 32.3697 -85.8661 324° Northwest 275 316 24,100  Level Atlanta Center
02:25PM 32.4336 -85.9142 328° Northwest 275 316 24,100  Level Atlanta Center
02:26PM 32.4933 -85.9647 324° Northwest 275 316 24,100  Level Atlanta Center
02:27PM 32.5700 -86.0156 331° Northwest 281 323 24,100  Level Atlanta Center
02:28PM 32.6317 -86.0639 327° Northwest 274 315 24,100  Level Atlanta Center
02:29PM 32.6956 -86.1172 325° Northwest 274 315 24,100  Level Atlanta Center
02:30PM 32.7572 -86.1681 325° Northwest 274 315 24,100  Level Atlanta Center
02:31PM 32.8211 -86.2164 328° Northwest 274 315 24,100  Level Atlanta Center
02:32PM 32.8850 -86.2650 327° Northwest 274 315 24,100  Level Atlanta Center
02:33PM 32.9486 -86.3161 326° Northwest 274 315 24,100  Level Atlanta Center
02:34PM 33.0103 -86.3675 325° Northwest 279 321 24,100  Level Atlanta Center
02:35PM 33.0742 -86.4186 326° Northwest 279 321 24,100  Level Atlanta Center
02:36PM 33.1378 -86.4675 327° Northwest 279 321 24,100  Level Atlanta Center
02:37PM 33.2017 -86.5189 326° Northwest 279 321 24,100  Level Atlanta Center
02:38PM 33.2611 -86.5703 324° Northwest 279 321 24,100  Level Atlanta Center
02:39PM 33.3164 -86.6142 326° Northwest 270 311 24,100  Level Atlanta Center
02:40PM 33.3800 -86.6658 326° Northwest 270 311 24,100  Level Atlanta Center
02:41PM 33.4439 -86.7150 327° Northwest 270 311 24,100  Level Atlanta Center
02:42PM 33.5053 -86.7667 325° Northwest 270 311 24,100  Level Atlanta Center
02:43PM 33.5689 -86.8161 327° Northwest 270 311 24,100  Level Atlanta Center
02:44PM 33.6325 -86.8656 327° Northwest 270 311 24,100  Level Atlanta Center
02:45PM 33.6872 -86.9297 316° Northwest 275 316 24,100  Level Atlanta Center
02:46PM 33.7231 -87.0083 299° West 267 307 24,100  Level Atlanta Center
02:47PM 33.7847 -87.1431 299° West 269 310 24,100  Level Memphis Center
02:48PM 33.8197 -87.2144 301° West 270 311 24,100  Level Memphis Center
02:49PM 33.8614 -87.2953 302° West 265 305 24,100  Level Memphis Center
02:50PM 33.8947 -87.3742 297° West 265 305 24,100  Level Memphis Center
02:51PM 33.9319 -87.4506 300° West 265 305 24,100  Level Memphis Center
02:52PM 33.9733 -87.5269 303° West 266 306 24,100  Level Memphis Center
02:53PM 34.0086 -87.6033 299° West 266 306 24,100  Level Memphis Center
02:54PM 34.0436 -87.6825 298° West 266 306 24,100  Level Memphis Center
02:55PM 34.0783 -87.7492 302° West 261 300 24,100  Level Memphis Center
02:56PM 34.1114 -87.8283 297° West 261 300 24,100  Level Memphis Center
02:57PM 34.1422 -87.9103 294° West 261 300 24,100  Level Memphis Center
02:58PM 34.1792 -87.9844 301° West 256 295 24,100  Level Memphis Center
02:59PM 34.2119 -88.0639 297° West 256 295 24,100  Level Memphis Center
03:00PM 34.2469 -88.1436 298° West 261 300 24,100 -360 Level Memphis Center
03:01PM 34.2839 -88.2406 295° West 276 318 23,400 -960 Descending Memphis Center
03:02PM 34.3231 -88.3275 299° West 286 329 22,200 -600 Descending Memphis Center
03:03PM 34.3597 -88.4072 299° West 280 322 22,200 -900 Level Memphis Center
03:04PM 34.3967 -88.4969 297° West 280 322 20,400 -1,860 Descending Memphis Center
03:05PM 34.4356 -88.5919 296° West 291 335 18,500 -1,800 Descending Memphis Center
03:06PM 34.4744 -88.6817 298° West 301 346 16,800 -1,560 Descending Memphis Center
03:07PM 34.5108 -88.7667 297° West 295 339 15,400 -1,440 Descending Memphis Center
03:08PM 34.5453 -88.8467 298° West 280 322 14,000 -1,500 Descending Memphis Center
03:09PM 34.5797 -88.9294 297° West 275 316 12,500 -1,500 Descending Memphis Center
03:10PM 34.6161 -89.0119 298° West 275 316 11,000 -1,380 Descending Memphis Center
03:11PM 34.6481 -89.0872 297° West 280 322 9,800 -1,320 Descending Memphis Center
03:12PM 34.6803 -89.1675 296° West 280 322 8,400 -900 Descending Memphis Center
03:13PM 34.7122 -89.2481 296° West 275 316 8,100 -480 Descending Memphis Center
03:14PM 34.7358 -89.3208 292° West 249 287 7,500 -720 Descending Memphis Center
03:15PM 34.7303 -89.4044 265° West 237 273 6,700 -900 Descending Memphis Center
03:16PM 34.7225 -89.4878 264° West 248 285 5,800 -900 Descending Memphis Center
03:17PM 34.7150 -89.5814 264° West 254 292 5,000 -420 Descending Memphis Center
03:18PM 34.7092 -89.6622 265° West 254 292 5,000  Level Memphis Center
03:19PM 34.7033 -89.7408 265° West 241 277 5,000  Level Memphis Center
03:20PM 34.6975 -89.8167 265° West 236 272 5,000 -600 Level Memphis Center
03:21PM 34.7019 -89.8975 274° West 236 272 3,900 -1,080 Descending Memphis Center
03:22PM 34.7272 -89.9603 296° West 236 272 2,900 -720 Descending Memphis Center
03:23PM 34.7794 -89.9728 349° North 196 226 2,500 -480 Descending Memphis Center
03:24PM 34.8294 -89.9725 360° North 180 207 2,000 -300 Descending Memphis Center
03:25PM 34.8692 -89.9750 357° North 151 174 2,000  Level Memphis Center
03:25PM 34.8833 -89.9667 26° Northeast 131 151 2,000  Level KMEM
03:26PM 34.9167 -89.9667 360° North 141 162 2,000 -180 Level KMEM
03:27PM 34.9500 -89.9667 360° North 145 167 1,700 -540 Descending KMEM
03:28PM 35.0000 -89.9667 360° North 144 166 1,000 -780 Descending KMEM
03:30PM 35.0333 -89.9667 322° Northwest  Level FlightAware Approximate
03:37PM 35.0424 -89.9767 322° Northwest  Level Estimated
03:38PM 35.0424 -89.9767 322° Northwest  Level Estimated
03:39PM 35.0424 -89.9767 322° Northwest  Level Estimated
03:40PM 35.0424 -89.9767 322° Northwest  Level Estimated
03:41PM 35.0424 -89.9767 322° Northwest  Level Estimated
03:42PM 35.0424 -89.9767 322° Northwest  Level Estimated